createdAt,value
2023-04-01T00:00:16.596Z,8.68
2023-04-01T00:01:16.742Z,8.66
2023-04-01T00:02:16.848Z,8.65
2023-04-01T00:03:17.072Z,8.59
2023-04-01T00:04:17.057Z,8.65
2023-04-01T00:05:17.072Z,8.62
2023-04-01T00:06:17.178Z,8.63
2023-04-01T00:07:17.257Z,8.65
2023-04-01T00:08:17.316Z,8.62
2023-04-01T00:09:17.395Z,8.61
2023-04-01T00:10:17.511Z,8.59
2023-04-01T00:11:17.676Z,8.56
2023-04-01T00:12:17.624Z,8.65
2023-04-01T00:13:17.722Z,8.58
2023-04-01T00:14:17.872Z,8.63
2023-04-01T00:15:17.978Z,8.61
2023-04-01T00:16:22.038Z,8.62
2023-04-01T00:17:18.025Z,8.58
2023-04-01T00:18:18.085Z,8.61
2023-04-01T00:19:18.155Z,8.56
2023-04-01T00:20:18.247Z,8.55
2023-04-01T00:21:18.366Z,8.59
2023-04-01T00:22:18.398Z,8.59
2023-04-01T00:23:18.591Z,8.61
2023-04-01T00:24:18.545Z,8.66
2023-04-01T00:25:18.640Z,8.56
2023-04-01T00:26:18.711Z,8.63
2023-04-01T00:27:18.814Z,8.59
2023-04-01T00:28:18.974Z,8.61
2023-04-01T00:29:19.035Z,8.61
2023-04-01T00:30:19.083Z,8.56
2023-04-01T00:31:19.204Z,8.59
2023-04-01T00:32:19.258Z,8.59
2023-04-01T00:33:19.329Z,8.59
2023-04-01T00:34:19.461Z,8.58
2023-04-01T00:35:19.493Z,8.59
2023-04-01T00:36:19.621Z,8.61
2023-04-01T00:37:19.613Z,8.59
2023-04-01T00:38:19.744Z,8.61
2023-04-01T00:39:19.883Z,8.55
2023-04-01T00:40:19.906Z,8.58
2023-04-01T00:41:20.026Z,8.55
2023-04-01T00:42:20.057Z,8.58
2023-04-01T00:43:20.167Z,8.56
2023-04-01T00:44:20.236Z,8.59
2023-04-01T00:45:20.330Z,8.56
2023-04-01T00:46:20.451Z,8.61
2023-04-01T00:47:20.526Z,8.61
2023-04-01T00:48:20.516Z,8.56
2023-04-01T00:49:20.614Z,8.55
2023-04-01T00:50:20.696Z,8.59
2023-04-01T00:51:20.762Z,8.59
2023-04-01T00:52:20.853Z,8.62
2023-04-01T00:53:21.940Z,8.58
2023-04-01T00:54:21.008Z,8.56
2023-04-01T00:55:21.085Z,8.59
2023-04-01T00:56:21.205Z,8.59
2023-04-01T00:57:21.309Z,8.59
2023-04-01T00:58:21.333Z,8.58
2023-04-01T00:59:21.407Z,8.62
2023-04-01T01:00:21.536Z,8.53
2023-04-01T01:01:21.603Z,8.56
2023-04-01T01:02:21.710Z,8.55
2023-04-01T01:03:21.884Z,8.55
2023-04-01T01:04:21.866Z,8.55
2023-04-01T01:05:22.027Z,8.53
2023-04-01T01:06:22.028Z,8.55
2023-04-01T01:07:22.102Z,8.56
2023-04-01T01:08:22.268Z,8.52
2023-04-01T01:09:22.459Z,8.55
2023-04-01T01:10:22.424Z,8.55
2023-04-01T01:11:22.436Z,8.53
2023-04-01T01:12:22.487Z,8.52
2023-04-01T01:13:22.566Z,8.53
2023-04-01T01:14:22.621Z,8.55
2023-04-01T01:15:22.759Z,8.55
2023-04-01T01:16:22.798Z,8.58
2023-04-01T01:17:22.976Z,8.53
2023-04-01T01:18:22.938Z,8.61
2023-04-01T01:19:23.022Z,8.55
2023-04-01T01:20:26.450Z,8.55
2023-04-01T01:21:23.188Z,8.55
2023-04-01T01:22:23.288Z,8.50
2023-04-01T01:23:23.442Z,8.56
2023-04-01T01:24:23.439Z,8.61
2023-04-01T01:25:23.562Z,8.58
2023-04-01T01:26:23.600Z,8.58
2023-04-01T01:27:23.729Z,8.59
2023-04-01T01:28:23.785Z,8.56
2023-04-01T01:29:23.857Z,8.58
2023-04-01T01:30:23.976Z,8.62
2023-04-01T01:31:24.097Z,8.55
2023-04-01T01:32:24.160Z,8.58
2023-04-01T01:33:24.229Z,8.58
2023-04-01T01:34:24.302Z,8.58
2023-04-01T01:35:24.464Z,8.63
2023-04-01T01:36:24.605Z,8.61
2023-04-01T01:37:24.594Z,8.61
2023-04-01T01:38:24.696Z,8.59
2023-04-01T01:39:24.768Z,8.59
2023-04-01T01:40:24.897Z,8.55
2023-04-01T01:41:24.975Z,8.58
2023-04-01T01:42:25.030Z,8.56
2023-04-01T01:43:25.079Z,8.62
2023-04-01T01:44:25.164Z,8.62
2023-04-01T01:45:25.271Z,8.59
2023-04-01T01:46:25.345Z,8.59
2023-04-01T01:47:25.435Z,8.58
2023-04-01T01:48:25.434Z,8.58
2023-04-01T01:49:25.591Z,8.55
2023-04-01T01:50:25.575Z,8.55
2023-04-01T01:51:25.729Z,8.56
2023-04-01T01:52:25.791Z,8.55
2023-04-01T01:53:25.851Z,8.61
2023-04-01T01:54:25.910Z,8.58
2023-04-01T01:55:25.997Z,8.58
2023-04-01T01:56:26.142Z,8.58
2023-04-01T01:57:26.274Z,8.62
2023-04-01T01:58:26.251Z,8.56
2023-04-01T01:59:26.351Z,8.56
2023-04-01T02:00:26.476Z,8.63
2023-04-01T02:01:26.629Z,8.59
2023-04-01T02:02:26.662Z,8.61
2023-04-01T02:03:26.691Z,8.58
2023-04-01T02:04:26.837Z,8.62
2023-04-01T02:05:26.867Z,8.59
2023-04-01T02:06:26.964Z,8.63
2023-04-01T02:07:27.062Z,8.61
2023-04-01T02:08:27.097Z,8.63
2023-04-01T02:09:27.224Z,8.59
2023-04-01T02:10:27.282Z,8.65
2023-04-01T02:11:27.331Z,8.63
2023-04-01T02:12:27.439Z,8.62
2023-04-01T02:13:27.520Z,8.65
2023-04-01T02:14:27.607Z,8.63
2023-04-01T02:15:27.635Z,8.63
2023-04-01T02:16:27.936Z,8.65
2023-04-01T02:17:27.895Z,8.59
2023-04-01T02:18:27.878Z,8.59
2023-04-01T02:19:28.023Z,8.63
2023-04-01T02:20:28.076Z,8.68
2023-04-01T02:21:28.155Z,8.63
2023-04-01T02:22:28.243Z,8.62
2023-04-01T02:23:28.304Z,8.62
2023-04-01T02:24:28.789Z,8.68
2023-04-01T02:25:28.482Z,8.65
2023-04-01T02:26:28.533Z,8.63
2023-04-01T02:27:28.645Z,8.66
2023-04-01T02:28:28.744Z,8.70
2023-04-01T02:29:28.820Z,8.62
2023-04-01T02:30:28.886Z,8.66
2023-04-01T02:31:28.978Z,8.63
2023-04-01T02:32:29.097Z,8.63
2023-04-01T02:33:29.132Z,8.66
2023-04-01T02:34:29.205Z,8.63
2023-04-01T02:35:29.305Z,8.66
2023-04-01T02:36:29.421Z,8.63
2023-04-01T02:37:29.462Z,8.66
2023-04-01T02:38:29.598Z,8.65
2023-04-01T02:39:29.646Z,8.63
2023-04-01T02:40:29.737Z,8.65
2023-04-01T02:41:29.815Z,8.61
2023-04-01T02:42:29.889Z,8.63
2023-04-01T02:43:30.001Z,8.71
2023-04-01T02:44:30.106Z,8.66
2023-04-01T02:45:30.149Z,8.68
2023-04-01T02:46:30.260Z,8.68
2023-04-01T02:47:30.332Z,8.68
2023-04-01T02:48:30.424Z,8.68
2023-04-01T02:49:30.460Z,8.61
2023-04-01T02:50:30.536Z,8.65
2023-04-01T02:51:32.170Z,8.62
2023-04-01T02:52:30.704Z,8.66
2023-04-01T02:53:30.802Z,8.61
2023-04-01T02:54:30.875Z,8.70
2023-04-01T02:55:31.243Z,8.68
2023-04-01T02:56:31.033Z,8.68
2023-04-01T02:57:31.186Z,8.65
2023-04-01T02:58:31.144Z,8.71
2023-04-01T02:59:31.237Z,8.65
2023-04-01T03:00:31.327Z,8.63
2023-04-01T03:01:31.531Z,8.66
2023-04-01T03:02:31.546Z,8.68
2023-04-01T03:03:31.551Z,8.65
2023-04-01T03:04:31.708Z,8.68
2023-04-01T03:05:32.088Z,8.66
2023-04-01T03:06:31.792Z,8.65
2023-04-01T03:07:31.885Z,8.59
2023-04-01T03:08:31.962Z,8.66
2023-04-01T03:09:32.072Z,8.65
2023-04-01T03:10:32.110Z,8.66
2023-04-01T03:11:32.188Z,8.68
2023-04-01T03:12:32.293Z,8.65
2023-04-01T03:13:32.326Z,8.63
2023-04-01T03:14:32.472Z,8.63
2023-04-01T03:15:32.750Z,8.62
2023-04-01T03:16:32.660Z,8.65
2023-04-01T03:17:32.786Z,8.63
2023-04-01T03:18:32.742Z,8.63
2023-04-01T03:19:32.838Z,8.61
2023-04-01T03:20:32.962Z,8.58
2023-04-01T03:21:33.027Z,8.62
2023-04-01T03:22:33.083Z,8.59
2023-04-01T03:23:33.171Z,8.62
2023-04-01T03:24:33.254Z,8.62
2023-04-01T03:25:33.428Z,8.62
2023-04-01T03:26:33.388Z,8.66
2023-04-01T03:27:33.471Z,8.62
2023-04-01T03:28:33.557Z,8.61
2023-04-01T03:29:42.327Z,8.65
2023-04-01T03:30:33.812Z,8.61
2023-04-01T03:31:33.909Z,8.63
2023-04-01T03:32:33.926Z,8.59
2023-04-01T03:33:33.989Z,8.56
2023-04-01T03:34:34.106Z,8.66
2023-04-01T03:35:34.374Z,8.65
2023-04-01T03:36:34.283Z,8.59
2023-04-01T03:37:34.346Z,8.61
2023-04-01T03:38:34.439Z,8.63
2023-04-01T03:39:34.518Z,8.62
2023-04-01T03:40:34.621Z,8.62
2023-04-01T03:41:34.739Z,8.59
2023-04-01T03:42:34.777Z,8.62
2023-04-01T03:43:34.829Z,8.58
2023-04-01T03:44:34.914Z,8.59
2023-04-01T03:45:35.073Z,8.58
2023-04-01T03:46:35.108Z,8.59
2023-04-01T03:47:35.166Z,8.58
2023-04-01T03:48:35.224Z,8.62
2023-04-01T03:49:35.288Z,8.62
2023-04-01T03:50:35.411Z,8.62
2023-04-01T03:51:35.444Z,8.61
2023-04-01T03:52:35.567Z,8.63
2023-04-01T03:53:35.578Z,8.62
2023-04-01T03:54:35.675Z,8.58
2023-04-01T03:55:35.758Z,8.61
2023-04-01T03:56:35.857Z,8.61
2023-04-01T03:57:35.994Z,8.61
2023-04-01T03:58:36.028Z,8.59
2023-04-01T03:59:36.105Z,8.65
2023-04-01T04:00:36.140Z,8.59
2023-04-01T04:01:36.249Z,8.61
2023-04-01T04:02:36.418Z,8.62
2023-04-01T04:03:36.531Z,8.61
2023-04-01T04:04:36.568Z,8.55
2023-04-01T04:05:36.567Z,8.58
2023-04-01T04:06:36.646Z,8.56
2023-04-01T04:07:36.748Z,8.62
2023-04-01T04:08:36.828Z,8.61
2023-04-01T04:09:36.914Z,8.61
2023-04-01T04:10:36.996Z,8.58
2023-04-01T04:11:37.061Z,8.61
2023-04-01T04:12:37.141Z,8.58
2023-04-01T04:13:37.197Z,8.58
2023-04-01T04:14:37.314Z,8.65
2023-04-01T04:15:37.388Z,8.58
2023-04-01T04:16:37.444Z,8.62
2023-04-01T04:17:37.541Z,8.61
2023-04-01T04:18:37.654Z,8.59
2023-04-01T04:19:37.725Z,8.61
2023-04-01T04:20:37.778Z,8.59
2023-04-01T04:21:37.856Z,8.61
2023-04-01T04:22:37.946Z,8.62
2023-04-01T04:23:38.048Z,8.62
2023-04-01T04:24:38.156Z,8.62
2023-04-01T04:25:38.204Z,8.63
2023-04-01T04:26:38.277Z,8.66
2023-04-01T04:27:38.348Z,8.61
2023-04-01T04:28:38.426Z,8.59
2023-04-01T04:29:38.567Z,8.65
2023-04-01T04:30:38.610Z,8.63
2023-04-01T04:31:38.739Z,8.63
2023-04-01T04:32:38.847Z,8.59
2023-04-01T04:33:38.869Z,8.65
2023-04-01T04:34:38.951Z,8.62
2023-04-01T04:35:39.108Z,8.62
2023-04-01T04:36:39.136Z,8.61
2023-04-01T04:37:39.232Z,8.59
2023-04-01T04:38:39.336Z,8.59
2023-04-01T04:39:39.469Z,8.62
2023-04-01T04:40:39.550Z,8.62
2023-04-01T04:41:39.607Z,8.63
2023-04-01T04:42:39.698Z,8.63
2023-04-01T04:43:39.800Z,8.65
2023-04-01T04:44:39.877Z,8.63
2023-04-01T04:45:40.006Z,8.61
2023-04-01T04:46:40.114Z,8.62
2023-04-01T04:47:40.179Z,8.61
2023-04-01T04:48:40.196Z,8.70
2023-04-01T04:49:40.342Z,8.59
2023-04-01T04:50:40.369Z,8.66
2023-04-01T04:51:40.449Z,8.66
2023-04-01T04:52:40.536Z,8.68
2023-04-01T04:53:40.619Z,8.63
2023-04-01T04:54:40.778Z,8.65
2023-04-01T04:55:40.777Z,8.63
2023-04-01T04:56:40.884Z,8.66
2023-04-01T04:57:40.957Z,8.61
2023-04-01T04:58:41.067Z,8.59
2023-04-01T04:59:41.199Z,8.65
2023-04-01T05:00:41.222Z,8.63
2023-04-01T05:01:41.351Z,8.66
2023-04-01T05:02:41.424Z,8.66
2023-04-01T05:03:41.508Z,8.66
2023-04-01T05:04:41.602Z,8.66
2023-04-01T05:05:41.626Z,8.66
2023-04-01T05:06:41.715Z,8.65
2023-04-01T05:07:41.853Z,8.70
2023-04-01T05:08:41.882Z,8.66
2023-04-01T05:09:41.972Z,8.70
2023-04-01T05:10:42.081Z,8.66
2023-04-01T05:11:42.132Z,8.68
2023-04-01T05:12:42.256Z,8.68
2023-04-01T05:13:42.305Z,8.73
2023-04-01T05:14:42.370Z,8.73
2023-04-01T05:15:42.516Z,8.77
2023-04-01T05:16:42.572Z,8.74
2023-04-01T05:17:42.662Z,8.74
2023-04-01T05:18:42.756Z,8.74
2023-04-01T05:19:42.835Z,8.74
2023-04-01T05:20:42.934Z,8.76
2023-04-01T05:21:42.984Z,8.74
2023-04-01T05:22:43.082Z,8.77
2023-04-01T05:23:43.170Z,8.73
2023-04-01T05:24:43.221Z,8.77
2023-04-01T05:25:43.332Z,8.76
2023-04-01T05:26:43.426Z,8.74
2023-04-01T05:27:43.488Z,8.76
2023-04-01T05:28:43.569Z,8.76
2023-04-01T05:29:43.672Z,8.80
2023-04-01T05:30:43.855Z,8.80
2023-04-01T05:31:43.838Z,8.84
2023-04-01T05:32:43.957Z,8.81
2023-04-01T05:33:44.027Z,8.77
2023-04-01T05:34:44.135Z,8.80
2023-04-01T05:35:44.250Z,8.83
2023-04-01T05:36:44.260Z,8.83
2023-04-01T05:37:44.308Z,8.86
2023-04-01T05:38:44.399Z,8.84
2023-04-01T05:39:44.482Z,8.84
2023-04-01T05:40:44.607Z,8.86
2023-04-01T05:41:44.691Z,8.84
2023-04-01T05:42:44.757Z,8.84
2023-04-01T05:43:44.828Z,8.84
2023-04-01T05:44:44.929Z,8.86
2023-04-01T05:45:45.032Z,8.89
2023-04-01T05:46:45.114Z,8.87
2023-04-01T05:47:45.201Z,8.86
2023-04-01T05:48:45.274Z,8.87
2023-04-01T05:49:45.382Z,8.92
2023-04-01T05:50:45.491Z,8.92
2023-04-01T05:51:45.526Z,8.92
2023-04-01T05:52:45.630Z,8.92
2023-04-01T05:53:45.709Z,8.92
2023-04-01T05:54:45.792Z,8.95
2023-04-01T05:55:45.916Z,8.96
2023-04-01T05:56:47.553Z,8.96
2023-04-01T05:57:46.052Z,8.99
2023-04-01T05:58:46.138Z,8.96
2023-04-01T05:59:46.230Z,8.92
2023-04-01T06:00:46.835Z,9.02
2023-04-01T06:01:46.391Z,8.98
2023-04-01T06:02:46.565Z,9.04
2023-04-01T06:03:46.742Z,8.99
2023-04-01T06:04:46.636Z,9.02
2023-04-01T06:05:46.747Z,9.02
2023-04-01T06:06:46.850Z,8.99
2023-04-01T06:07:46.908Z,9.05
2023-04-01T06:08:46.992Z,9.04
2023-04-01T06:09:47.103Z,9.11
2023-04-01T06:10:47.166Z,9.04
2023-04-01T06:11:47.268Z,9.04
2023-04-01T06:12:47.314Z,9.14
2023-04-01T06:13:47.374Z,9.11
2023-04-01T06:14:47.465Z,9.13
2023-04-01T06:15:47.541Z,9.10
2023-04-01T06:16:47.676Z,9.13
2023-04-01T06:17:47.710Z,9.15
2023-04-01T06:18:47.745Z,9.13
2023-04-01T06:19:47.860Z,9.13
2023-04-01T06:20:47.887Z,9.15
2023-04-01T06:21:48.045Z,9.11
2023-04-01T06:22:48.069Z,9.15
2023-04-01T06:23:48.217Z,9.14
2023-04-01T06:24:48.290Z,9.17
2023-04-01T06:25:48.336Z,9.24
2023-04-01T06:26:48.492Z,9.18
2023-04-01T06:27:48.496Z,9.15
2023-04-01T06:28:48.593Z,9.15
2023-04-01T06:29:48.689Z,9.14
2023-04-01T06:30:48.779Z,9.18
2023-04-01T06:31:48.941Z,9.14
2023-04-01T06:32:49.040Z,9.17
2023-04-01T06:33:49.000Z,9.20
2023-04-01T06:34:49.088Z,9.21
2023-04-01T06:35:49.223Z,9.20
2023-04-01T06:36:49.249Z,9.23
2023-04-01T06:37:49.399Z,9.24
2023-04-01T06:38:49.426Z,9.26
2023-04-01T06:39:49.523Z,9.26
2023-04-01T06:40:49.603Z,9.26
2023-04-01T06:41:49.660Z,9.21
2023-04-01T06:42:49.765Z,9.29
2023-04-01T06:43:49.842Z,9.31
2023-04-01T06:44:50.157Z,9.35
2023-04-01T06:45:50.092Z,9.28
2023-04-01T06:46:50.077Z,9.32
2023-04-01T06:47:50.198Z,9.31
2023-04-01T06:48:50.332Z,9.33
2023-04-01T06:49:50.334Z,9.32
2023-04-01T06:50:50.422Z,9.32
2023-04-01T06:51:50.513Z,9.35
2023-04-01T06:52:50.571Z,9.33
2023-04-01T06:53:50.708Z,9.33
2023-04-01T06:54:50.752Z,9.38
2023-04-01T06:55:50.874Z,9.32
2023-04-01T06:56:50.955Z,9.38
2023-04-01T06:57:50.994Z,9.33
2023-04-01T06:58:51.116Z,9.35
2023-04-01T06:59:51.209Z,9.32
2023-04-01T07:00:51.288Z,9.35
2023-04-01T07:01:51.351Z,9.33
2023-04-01T07:02:51.483Z,9.38
2023-04-01T07:03:51.543Z,9.40
2023-04-01T07:04:51.647Z,9.36
2023-04-01T07:05:51.716Z,9.38
2023-04-01T07:06:51.776Z,9.38
2023-04-01T07:07:51.868Z,9.36
2023-04-01T07:08:51.972Z,9.32
2023-04-01T07:09:52.050Z,9.33
2023-04-01T07:10:52.188Z,9.40
2023-04-01T07:11:52.217Z,9.40
2023-04-01T07:12:52.324Z,9.42
2023-04-01T07:13:52.424Z,9.42
2023-04-01T07:14:52.468Z,9.38
2023-04-01T07:15:52.711Z,9.38
2023-04-01T07:16:52.705Z,9.39
2023-04-01T07:17:52.768Z,9.40
2023-04-01T07:18:52.839Z,9.36
2023-04-01T07:19:52.890Z,9.38
2023-04-01T07:20:53.040Z,9.47
2023-04-01T07:21:53.047Z,9.43
2023-04-01T07:22:53.487Z,9.42
2023-04-01T07:23:53.212Z,9.46
2023-04-01T07:24:53.322Z,9.51
2023-04-01T07:25:53.378Z,9.53
2023-04-01T07:26:53.484Z,9.54
2023-04-01T07:27:53.572Z,9.54
2023-04-01T07:28:53.606Z,9.56
2023-04-01T07:29:53.711Z,9.51
2023-04-01T07:30:53.867Z,9.54
2023-04-01T07:31:53.916Z,9.54
2023-04-01T07:32:53.964Z,9.60
2023-04-01T07:33:54.048Z,9.61
2023-04-01T07:34:54.185Z,9.64
2023-04-01T07:35:54.307Z,9.68
2023-04-01T07:36:54.463Z,9.71
2023-04-01T07:37:54.412Z,9.74
2023-04-01T07:38:54.541Z,9.71
2023-04-01T07:39:54.572Z,9.76
2023-04-01T07:40:54.667Z,9.76
2023-04-01T07:41:54.793Z,9.74
2023-04-01T07:42:54.834Z,9.75
2023-04-01T07:43:54.938Z,9.83
2023-04-01T07:44:54.970Z,9.72
2023-04-01T07:45:55.085Z,9.79
2023-04-01T07:46:55.140Z,9.86
2023-04-01T07:47:55.279Z,9.86
2023-04-01T07:48:55.334Z,9.89
2023-04-01T07:49:55.364Z,9.89
2023-04-01T07:50:55.455Z,9.96
2023-04-01T07:51:55.527Z,9.96
2023-04-01T07:52:55.610Z,9.94
2023-04-01T07:53:55.750Z,10.01
2023-04-01T07:54:55.808Z,9.97
2023-04-01T07:55:55.907Z,9.96
2023-04-01T07:56:56.067Z,9.96
2023-04-01T07:57:56.039Z,9.94
2023-04-01T07:58:56.156Z,10.02
2023-04-01T07:59:56.250Z,10.01
2023-04-01T08:00:56.325Z,10.07
2023-04-01T08:01:56.395Z,10.04
2023-04-01T08:02:56.495Z,10.08
2023-04-01T08:03:56.664Z,10.12
2023-04-01T08:04:56.664Z,10.14
2023-04-01T08:05:56.704Z,10.14
2023-04-01T08:06:56.862Z,10.18
2023-04-01T08:07:56.939Z,10.15
2023-04-01T08:08:56.960Z,10.17
2023-04-01T08:09:57.070Z,10.18
2023-04-01T08:10:57.174Z,10.17
2023-04-01T08:11:57.253Z,10.20
2023-04-01T08:12:57.362Z,10.29
2023-04-01T08:13:57.390Z,10.25
2023-04-01T08:14:57.495Z,10.26
2023-04-01T08:15:57.608Z,10.26
2023-04-01T08:16:57.659Z,10.20
2023-04-01T08:17:57.826Z,10.18
2023-04-01T08:18:57.814Z,10.15
2023-04-01T08:19:57.924Z,10.14
2023-04-01T08:20:58.035Z,10.11
2023-04-01T08:21:58.061Z,10.09
2023-04-01T08:22:58.163Z,10.04
2023-04-01T08:23:58.262Z,10.04
2023-04-01T08:24:58.290Z,10.02
2023-04-01T08:25:58.382Z,9.97
2023-04-01T08:26:58.483Z,9.86
2023-04-01T08:27:58.561Z,9.76
2023-04-01T08:28:58.687Z,9.60
2023-04-01T08:29:58.771Z,9.51
2023-04-01T08:30:58.848Z,9.42
2023-04-01T08:31:58.951Z,9.32
2023-04-01T08:32:59.015Z,9.29
2023-04-01T08:33:59.086Z,9.26
2023-04-01T08:34:59.166Z,9.24
2023-04-01T08:35:59.327Z,9.23
2023-04-01T08:36:59.351Z,9.15
2023-04-01T08:37:59.443Z,9.20
2023-04-01T08:38:59.503Z,9.15
2023-04-01T08:39:59.603Z,9.21
2023-04-01T08:40:59.661Z,9.21
2023-04-01T08:41:59.727Z,9.18
2023-04-01T08:42:59.851Z,9.14
2023-04-01T08:43:59.942Z,9.11
2023-04-01T08:45:00.037Z,9.20
2023-04-01T08:46:00.161Z,9.17
2023-04-01T08:47:00.220Z,9.10
2023-04-01T08:48:00.285Z,9.13
2023-04-01T08:49:00.372Z,9.08
2023-04-01T08:50:00.471Z,9.15
2023-04-01T08:51:00.513Z,9.13
2023-04-01T08:52:00.579Z,9.15
2023-04-01T08:53:00.642Z,9.14
2023-04-01T08:54:00.702Z,9.20
2023-04-01T08:55:00.840Z,9.21
2023-04-01T08:56:00.858Z,9.24
2023-04-01T08:57:00.952Z,9.20
2023-04-01T08:58:01.019Z,9.15
2023-04-01T08:59:01.100Z,9.18
2023-04-01T09:00:01.199Z,9.14
2023-04-01T09:01:01.273Z,9.15
2023-04-01T09:02:01.327Z,9.20
2023-04-01T09:03:01.651Z,9.21
2023-04-01T09:04:01.560Z,9.28
2023-04-01T09:05:01.578Z,9.28
2023-04-01T09:06:01.683Z,9.38
2023-04-01T09:07:01.721Z,9.39
2023-04-01T09:08:01.862Z,9.39
2023-04-01T09:09:01.899Z,9.35
2023-04-01T09:10:01.994Z,9.40
2023-04-01T09:11:02.094Z,9.33
2023-04-01T09:12:02.225Z,9.32
2023-04-01T09:13:02.264Z,9.35
2023-04-01T09:14:02.317Z,9.35
2023-04-01T09:15:02.426Z,9.40
2023-04-01T09:16:02.512Z,9.43
2023-04-01T09:17:02.598Z,9.38
2023-04-01T09:18:02.753Z,9.40
2023-04-01T09:19:02.765Z,9.35
2023-04-01T09:20:02.851Z,9.36
2023-04-01T09:21:02.939Z,9.40
2023-04-01T09:22:03.051Z,9.39
2023-04-01T09:23:03.114Z,9.31
2023-04-01T09:24:03.190Z,9.36
2023-04-01T09:25:03.246Z,9.35
2023-04-01T09:26:03.343Z,9.40
2023-04-01T09:27:03.473Z,9.42
2023-04-01T09:28:03.518Z,9.36
2023-04-01T09:29:03.664Z,9.31
2023-04-01T09:31:30.752Z,9.26
2023-04-01T09:31:58.482Z,9.13
2023-04-01T09:32:31.558Z,9.15
2023-04-01T09:33:31.642Z,9.13
2023-04-01T09:34:31.758Z,9.10
2023-04-01T09:35:32.155Z,9.08
2023-04-01T09:36:31.920Z,9.05
2023-04-01T09:37:32.017Z,9.04
2023-04-01T09:38:32.106Z,8.99
2023-04-01T09:39:32.200Z,8.95
2023-04-01T09:40:32.300Z,8.99
2023-04-01T09:41:32.390Z,8.95
2023-04-01T09:42:32.428Z,8.98
2023-04-01T09:43:32.525Z,9.01
2023-04-01T09:44:32.595Z,8.98
2023-04-01T09:45:32.864Z,8.96
2023-04-01T09:46:32.801Z,8.99
2023-04-01T09:47:32.929Z,8.99
2023-04-01T09:48:32.930Z,8.99
2023-04-01T09:49:33.046Z,9.04
2023-04-01T09:50:33.101Z,9.05
2023-04-01T09:51:33.220Z,9.05
2023-04-01T09:52:33.249Z,9.01
2023-04-01T09:53:33.333Z,9.08
2023-04-01T09:54:33.920Z,9.10
2023-04-01T09:55:33.784Z,9.10
2023-04-01T09:56:34.370Z,9.15
2023-04-01T09:57:33.815Z,9.14
2023-04-01T09:58:33.742Z,9.17
2023-04-01T09:59:33.819Z,9.15
2023-04-01T10:00:33.908Z,9.15
2023-04-01T10:01:34.053Z,9.11
2023-04-01T10:02:34.071Z,9.08
2023-04-01T10:03:34.173Z,9.04
2023-04-01T10:04:34.262Z,9.08
2023-04-01T10:05:34.488Z,9.08
2023-04-01T10:06:34.455Z,8.96
2023-04-01T10:07:34.551Z,9.02
2023-04-01T10:08:34.636Z,8.98
2023-04-01T10:09:34.728Z,8.98
2023-04-01T10:10:34.785Z,8.96
2023-04-01T10:11:34.890Z,9.04
2023-04-01T10:12:34.997Z,9.05
2023-04-01T10:13:35.043Z,9.02
2023-04-01T10:14:35.128Z,9.04
2023-04-01T10:15:35.342Z,9.13
2023-04-01T10:16:35.311Z,9.10
2023-04-01T10:17:35.433Z,9.05
2023-04-01T10:18:35.470Z,9.05
2023-04-01T10:19:35.536Z,9.01
2023-04-01T10:20:35.636Z,9.02
2023-04-01T10:21:35.730Z,9.04
2023-04-01T10:22:35.854Z,9.04
2023-04-01T10:23:35.902Z,9.05
2023-04-01T10:24:35.990Z,9.02
2023-04-01T10:25:36.173Z,9.02
2023-04-01T10:26:36.141Z,9.11
2023-04-01T10:27:36.200Z,9.05
2023-04-01T10:28:36.310Z,9.02
2023-04-01T10:29:36.388Z,8.99
2023-04-01T10:30:36.492Z,8.98
2023-04-01T10:31:36.617Z,8.94
2023-04-01T10:32:36.668Z,8.94
2023-04-01T10:33:36.755Z,8.94
2023-04-01T10:34:36.861Z,8.95
2023-04-01T10:35:37.104Z,8.94
2023-04-01T10:36:37.030Z,8.92
2023-04-01T10:37:37.125Z,8.95
2023-04-01T10:38:37.209Z,8.96
2023-04-01T10:39:37.304Z,8.98
2023-04-01T10:40:37.421Z,9.08
2023-04-01T10:41:37.488Z,8.98
2023-04-01T10:42:37.557Z,8.95
2023-04-01T10:43:37.631Z,8.98
2023-04-01T10:44:37.750Z,8.98
2023-04-01T10:45:37.867Z,8.92
2023-04-01T10:46:38.154Z,8.92
2023-04-01T10:47:38.059Z,8.94
2023-04-01T10:48:38.113Z,8.92
2023-04-01T10:49:38.166Z,8.91
2023-04-01T10:50:38.232Z,8.94
2023-04-01T10:51:38.318Z,8.96
2023-04-01T10:52:38.392Z,8.96
2023-04-01T10:53:38.477Z,8.96
2023-04-01T10:54:38.572Z,8.95
2023-04-01T10:55:38.726Z,8.96
2023-04-01T10:56:38.778Z,9.01
2023-04-01T10:57:38.879Z,8.96
2023-04-01T10:58:38.959Z,8.96
2023-04-01T10:59:39.060Z,8.91
2023-04-01T11:00:39.145Z,8.86
2023-04-01T11:01:39.292Z,8.89
2023-04-01T11:02:39.357Z,8.81
2023-04-01T11:03:39.469Z,8.87
2023-04-01T11:04:39.478Z,8.92
2023-04-01T11:05:39.549Z,8.91
2023-04-01T11:06:39.644Z,8.91
2023-04-01T11:07:39.736Z,8.86
2023-04-01T11:08:39.889Z,8.89
2023-04-01T11:09:39.849Z,8.86
2023-04-01T11:10:39.930Z,8.92
2023-04-01T11:11:40.033Z,8.92
2023-04-01T11:12:40.104Z,8.81
2023-04-01T11:13:40.182Z,8.83
2023-04-01T11:14:40.261Z,8.80
2023-04-01T11:15:40.383Z,8.80
2023-04-01T11:16:40.521Z,8.80
2023-04-01T11:17:40.543Z,8.83
2023-04-01T11:18:40.927Z,8.81
2023-04-01T11:19:40.665Z,8.81
2023-04-01T11:20:40.737Z,8.73
2023-04-01T11:21:40.808Z,8.70
2023-04-01T11:22:40.889Z,8.70
2023-04-01T11:23:41.004Z,8.62
2023-04-01T11:24:41.059Z,8.58
2023-04-01T11:25:41.132Z,8.63
2023-04-01T11:26:41.272Z,8.66
2023-04-01T11:27:41.299Z,8.61
2023-04-01T11:28:41.392Z,8.53
2023-04-01T11:29:53.118Z,8.56
2023-04-01T11:30:42.493Z,8.63
2023-04-01T11:31:41.998Z,8.66
2023-04-01T11:32:41.639Z,8.62
2023-04-01T11:33:41.689Z,8.65
2023-04-01T11:34:41.763Z,8.56
2023-04-01T11:35:41.862Z,8.59
2023-04-01T11:36:41.936Z,8.61
2023-04-01T11:37:42.021Z,8.61
2023-04-01T11:38:42.091Z,8.50
2023-04-01T11:39:42.153Z,8.50
2023-04-01T11:40:42.275Z,8.52
2023-04-01T11:41:42.334Z,8.55
2023-04-01T11:42:42.407Z,8.53
2023-04-01T11:43:42.481Z,8.58
2023-04-01T11:44:42.559Z,8.59
2023-04-01T11:45:42.646Z,8.62
2023-04-01T11:46:42.894Z,8.63
2023-04-01T11:47:42.854Z,8.58
2023-04-01T11:48:44.865Z,8.58
2023-04-01T11:49:42.943Z,8.56
2023-04-01T11:50:43.034Z,8.53
2023-04-01T11:51:43.114Z,8.53
2023-04-01T11:52:43.201Z,8.53
2023-04-01T11:53:43.294Z,8.48
2023-04-01T11:54:43.349Z,8.52
2023-04-01T11:55:43.458Z,8.56
2023-04-01T11:56:43.548Z,8.56
2023-04-01T11:57:43.608Z,8.56
2023-04-01T11:58:43.731Z,8.52
2023-04-01T11:59:43.770Z,8.52
2023-04-01T12:00:43.852Z,8.53
2023-04-01T12:01:43.956Z,8.56
2023-04-01T12:02:44.117Z,8.52
2023-04-01T12:03:44.317Z,8.56
2023-04-01T12:04:44.261Z,8.48
2023-04-01T12:05:44.295Z,8.47
2023-04-01T12:06:44.386Z,8.38
2023-04-01T12:07:46.415Z,8.33
2023-04-01T12:08:44.556Z,8.30
2023-04-01T12:09:44.620Z,8.23
2023-04-01T12:10:44.679Z,8.23
2023-04-01T12:11:44.817Z,8.25
2023-04-01T12:12:54.177Z,8.20
2023-04-01T12:13:45.950Z,8.25
2023-04-01T12:14:45.034Z,8.25
2023-04-01T12:15:45.109Z,8.29
2023-04-01T12:16:45.216Z,8.26
2023-04-01T12:17:45.376Z,8.26
2023-04-01T12:18:45.345Z,8.28
2023-04-01T12:19:45.446Z,8.26
2023-04-01T12:20:45.562Z,8.28
2023-04-01T12:21:45.629Z,8.28
2023-04-01T12:22:45.762Z,8.36
2023-04-01T12:23:45.791Z,8.34
2023-04-01T12:24:45.868Z,8.36
2023-04-01T12:25:45.949Z,8.36
2023-04-01T12:26:46.029Z,8.37
2023-04-01T12:27:46.125Z,8.38
2023-04-01T12:28:46.200Z,8.41
2023-04-01T12:29:46.270Z,8.45
2023-04-01T12:30:46.345Z,8.47
2023-04-01T12:31:46.449Z,8.47
2023-04-01T12:32:46.597Z,8.43
2023-04-01T12:33:46.593Z,8.43
2023-04-01T12:34:46.662Z,8.38
2023-04-01T12:35:46.790Z,8.43
2023-04-01T12:36:47.627Z,8.41
2023-04-01T12:37:46.928Z,8.47
2023-04-01T12:38:46.984Z,8.45
2023-04-01T12:39:47.054Z,8.38
2023-04-01T12:40:47.151Z,8.41
2023-04-01T12:41:47.184Z,8.43
2023-04-01T12:42:47.306Z,8.43
2023-04-01T12:43:47.348Z,8.37
2023-04-01T12:44:47.428Z,8.28
2023-04-01T12:45:47.537Z,8.23
2023-04-01T12:46:47.591Z,8.19
2023-04-01T12:47:47.751Z,8.20
2023-04-01T12:48:47.740Z,8.16
2023-04-01T12:49:47.841Z,8.12
2023-04-01T12:50:47.876Z,8.15
2023-04-01T12:51:47.969Z,8.12
2023-04-01T12:52:48.058Z,8.15
2023-04-01T12:53:48.129Z,8.10
2023-04-01T12:54:48.236Z,8.15
2023-04-01T12:55:48.326Z,8.10
2023-04-01T12:56:48.447Z,8.08
2023-04-01T12:57:48.480Z,8.15
2023-04-01T12:58:48.562Z,8.05
2023-04-01T12:59:48.655Z,8.11
2023-04-01T13:00:48.724Z,8.04
2023-04-01T13:01:48.961Z,8.04
2023-04-01T13:02:48.901Z,8.04
2023-04-01T13:03:49.012Z,7.98
2023-04-01T13:04:49.067Z,8.04
2023-04-01T13:05:49.165Z,8.02
2023-04-01T13:06:49.237Z,8.04
2023-04-01T13:07:49.346Z,8.05
2023-04-01T13:08:49.426Z,8.01
2023-04-01T13:09:52.199Z,8.07
2023-04-01T13:10:49.580Z,8.04
2023-04-01T13:11:49.646Z,8.01
2023-04-01T13:12:49.773Z,8.07
2023-04-01T13:13:49.834Z,8.05
2023-04-01T13:14:49.909Z,8.01
2023-04-01T13:15:49.984Z,8.00
2023-04-01T13:16:50.057Z,8.00
2023-04-01T13:17:50.347Z,7.97
2023-04-01T13:18:50.268Z,7.93